sensor_id;sensor_type;location;lat;lon;timestamp;P1;durP1;ratioP1;P2;durP2;ratioP2
2750;SDS011;1383;48.362;10.908;2023-12-20T00:17:26;2.33;;;1.90;;
2750;SDS011;1383;48.362;10.908;2023-12-20T00:19:53;3.73;;;2.53;;
2750;SDS011;1383;48.362;10.908;2023-12-20T00:22:20;4.17;;;2.53;;
2750;SDS011;1383;48.362;10.908;2023-12-20T00:24:47;2.10;;;1.80;;
2750;SDS011;1383;48.362;10.908;2023-12-20T00:27:14;2.23;;;1.93;;
2750;SDS011;1383;48.362;10.908;2023-12-20T00:29:41;3.83;;;2.50;;
2750;SDS011;1383;48.362;10.908;2023-12-20T00:32:09;1.97;;;1.83;;
2750;SDS011;1383;48.362;10.908;2023-12-20T00:34:36;2.13;;;1.77;;
2750;SDS011;1383;48.362;10.908;2023-12-20T00:37:03;3.30;;;2.20;;
2750;SDS011;1383;48.362;10.908;2023-12-20T00:39:30;2.50;;;1.80;;
2750;SDS011;1383;48.362;10.908;2023-12-20T00:41:57;2.87;;;2.10;;
2750;SDS011;1383;48.362;10.908;2023-12-20T00:44:23;2.17;;;1.60;;
2750;SDS011;1383;48.362;10.908;2023-12-20T00:46:50;2.70;;;2.10;;
2750;SDS011;1383;48.362;10.908;2023-12-20T00:49:17;2.75;;;2.20;;
2750;SDS011;1383;48.362;10.908;2023-12-20T00:51:44;3.58;;;2.22;;
2750;SDS011;1383;48.362;10.908;2023-12-20T00:54:11;2.57;;;2.30;;
2750;SDS011;1383;48.362;10.908;2023-12-20T00:56:39;1.90;;;1.80;;
2750;SDS011;1383;48.362;10.908;2023-12-20T00:59:06;3.70;;;2.43;;
2750;SDS011;1383;48.362;10.908;2023-12-20T01:01:32;2.40;;;1.70;;
2750;SDS011;1383;48.362;10.908;2023-12-20T01:03:59;2.60;;;1.98;;
2750;SDS011;1383;48.362;10.908;2023-12-20T01:06:27;2.50;;;2.20;;
2750;SDS011;1383;48.362;10.908;2023-12-20T01:08:53;2.30;;;1.73;;
2750;SDS011;1383;48.362;10.908;2023-12-20T01:11:20;1.83;;;1.73;;
2750;SDS011;1383;48.362;10.908;2023-12-20T01:13:47;2.40;;;1.63;;
2750;SDS011;1383;48.362;10.908;2023-12-20T01:16:14;2.78;;;1.90;;
2750;SDS011;1383;48.362;10.908;2023-12-20T01:18:41;2.93;;;1.90;;
2750;SDS011;1383;48.362;10.908;2023-12-20T01:21:08;1.83;;;1.73;;
2750;SDS011;1383;48.362;10.908;2023-12-20T01:23:34;3.17;;;1.87;;
2750;SDS011;1383;48.362;10.908;2023-12-20T01:26:01;3.80;;;1.93;;
2750;SDS011;1383;48.362;10.908;2023-12-20T01:28:31;2.30;;;2.03;;
2750;SDS011;1383;48.362;10.908;2023-12-20T01:30:58;1.93;;;1.73;;
2750;SDS011;1383;48.362;10.908;2023-12-20T01:33:25;3.17;;;1.97;;
2750;SDS011;1383;48.362;10.908;2023-12-20T01:35:52;2.20;;;1.80;;
2750;SDS011;1383;48.362;10.908;2023-12-20T01:38:19;2.03;;;1.83;;
2750;SDS011;1383;48.362;10.908;2023-12-20T01:40:46;1.73;;;1.50;;
2750;SDS011;1383;48.362;10.908;2023-12-20T01:43:13;2.47;;;1.50;;
2750;SDS011;1383;48.362;10.908;2023-12-20T01:45:40;4.73;;;3.97;;
2750;SDS011;1383;48.362;10.908;2023-12-20T01:48:07;9.23;;;6.07;;
2750;SDS011;1383;48.362;10.908;2023-12-20T01:50:35;3.57;;;3.17;;
2750;SDS011;1383;48.362;10.908;2023-12-20T01:53:03;2.60;;;1.90;;
2750;SDS011;1383;48.362;10.908;2023-12-20T01:55:33;2.40;;;2.20;;
2750;SDS011;1383;48.362;10.908;2023-12-20T01:58:02;3.20;;;2.30;;
2750;SDS011;1383;48.362;10.908;2023-12-20T02:03:01;2.10;;;1.97;;
2750;SDS011;1383;48.362;10.908;2023-12-20T02:05:32;1.73;;;1.63;;
2750;SDS011;1383;48.362;10.908;2023-12-20T02:08:00;1.73;;;1.63;;
2750;SDS011;1383;48.362;10.908;2023-12-20T02:10:27;4.50;;;2.17;;
2750;SDS011;1383;48.362;10.908;2023-12-20T02:12:55;3.15;;;2.20;;
2750;SDS011;1383;48.362;10.908;2023-12-20T02:15:22;2.10;;;1.80;;
2750;SDS011;1383;48.362;10.908;2023-12-20T02:17:49;2.00;;;1.87;;
2750;SDS011;1383;48.362;10.908;2023-12-20T02:20:16;2.03;;;1.83;;
2750;SDS011;1383;48.362;10.908;2023-12-20T02:22:43;2.37;;;1.87;;
2750;SDS011;1383;48.362;10.908;2023-12-20T02:25:10;2.77;;;1.87;;
2750;SDS011;1383;48.362;10.908;2023-12-20T02:27:37;3.13;;;2.03;;
2750;SDS011;1383;48.362;10.908;2023-12-20T02:30:05;2.03;;;1.83;;
2750;SDS011;1383;48.362;10.908;2023-12-20T02:32:33;2.00;;;1.70;;
2750;SDS011;1383;48.362;10.908;2023-12-20T02:35:00;1.98;;;1.80;;
2750;SDS011;1383;48.362;10.908;2023-12-20T02:37:27;2.23;;;2.03;;
2750;SDS011;1383;48.362;10.908;2023-12-20T02:39:54;3.47;;;1.60;;
2750;SDS011;1383;48.362;10.908;2023-12-20T02:42:20;1.90;;;1.73;;
2750;SDS011;1383;48.362;10.908;2023-12-20T02:44:47;2.10;;;2.00;;
2750;SDS011;1383;48.362;10.908;2023-12-20T02:47:14;1.70;;;1.60;;
2750;SDS011;1383;48.362;10.908;2023-12-20T02:49:41;1.90;;;1.70;;
2750;SDS011;1383;48.362;10.908;2023-12-20T02:52:08;2.42;;;2.03;;
2750;SDS011;1383;48.362;10.908;2023-12-20T02:54:35;2.50;;;2.30;;
2750;SDS011;1383;48.362;10.908;2023-12-20T02:57:02;4.85;;;2.85;;
2750;SDS011;1383;48.362;10.908;2023-12-20T02:59:29;2.47;;;2.08;;
2750;SDS011;1383;48.362;10.908;2023-12-20T03:01:57;2.30;;;2.10;;
2750;SDS011;1383;48.362;10.908;2023-12-20T03:04:24;2.13;;;1.93;;
2750;SDS011;1383;48.362;10.908;2023-12-20T03:06:51;2.80;;;2.60;;
2750;SDS011;1383;48.362;10.908;2023-12-20T03:09:18;3.30;;;2.40;;
2750;SDS011;1383;48.362;10.908;2023-12-20T03:11:45;3.05;;;2.75;;
2750;SDS011;1383;48.362;10.908;2023-12-20T03:14:12;2.20;;;2.00;;
2750;SDS011;1383;48.362;10.908;2023-12-20T03:16:39;2.90;;;2.27;;
2750;SDS011;1383;48.362;10.908;2023-12-20T03:19:05;3.60;;;2.37;;
2750;SDS011;1383;48.362;10.908;2023-12-20T03:21:32;2.28;;;2.08;;
2750;SDS011;1383;48.362;10.908;2023-12-20T03:23:59;2.50;;;2.30;;
2750;SDS011;1383;48.362;10.908;2023-12-20T03:26:26;2.97;;;2.58;;
2750;SDS011;1383;48.362;10.908;2023-12-20T03:28:53;2.10;;;1.98;;
2750;SDS011;1383;48.362;10.908;2023-12-20T03:31:20;3.45;;;2.80;;
2750;SDS011;1383;48.362;10.908;2023-12-20T03:33:47;3.00;;;2.50;;
2750;SDS011;1383;48.362;10.908;2023-12-20T03:36:14;2.72;;;2.53;;
2750;SDS011;1383;48.362;10.908;2023-12-20T03:38:41;4.72;;;2.40;;
2750;SDS011;1383;48.362;10.908;2023-12-20T03:41:08;3.10;;;2.10;;
2750;SDS011;1383;48.362;10.908;2023-12-20T03:43:35;4.13;;;2.80;;
2750;SDS011;1383;48.362;10.908;2023-12-20T03:46:02;2.38;;;2.17;;
2750;SDS011;1383;48.362;10.908;2023-12-20T03:48:30;3.05;;;2.75;;
2750;SDS011;1383;48.362;10.908;2023-12-20T03:50:57;2.92;;;2.63;;
2750;SDS011;1383;48.362;10.908;2023-12-20T03:53:24;3.08;;;2.55;;
2750;SDS011;1383;48.362;10.908;2023-12-20T03:55:51;3.40;;;2.50;;
2750;SDS011;1383;48.362;10.908;2023-12-20T03:58:18;3.35;;;2.80;;
2750;SDS011;1383;48.362;10.908;2023-12-20T04:00:45;2.88;;;2.67;;
2750;SDS011;1383;48.362;10.908;2023-12-20T04:03:12;3.05;;;2.35;;
2750;SDS011;1383;48.362;10.908;2023-12-20T04:05:40;4.03;;;3.22;;
2750;SDS011;1383;48.362;10.908;2023-12-20T04:08:07;4.13;;;3.03;;
2750;SDS011;1383;48.362;10.908;2023-12-20T04:10:34;5.68;;;3.30;;
2750;SDS011;1383;48.362;10.908;2023-12-20T04:13:01;3.53;;;2.97;;
2750;SDS011;1383;48.362;10.908;2023-12-20T04:15:28;3.35;;;3.05;;
2750;SDS011;1383;48.362;10.908;2023-12-20T04:17:55;4.22;;;2.88;;
2750;SDS011;1383;48.362;10.908;2023-12-20T04:20:22;4.13;;;3.45;;
2750;SDS011;1383;48.362;10.908;2023-12-20T04:22:48;4.25;;;3.45;;
2750;SDS011;1383;48.362;10.908;2023-12-20T04:25:15;3.28;;;2.67;;
2750;SDS011;1383;48.362;10.908;2023-12-20T04:27:42;3.55;;;2.97;;
2750;SDS011;1383;48.362;10.908;2023-12-20T04:30:10;4.35;;;3.95;;
2750;SDS011;1383;48.362;10.908;2023-12-20T04:32:37;4.00;;;3.58;;
2750;SDS011;1383;48.362;10.908;2023-12-20T04:35:03;3.42;;;3.13;;
2750;SDS011;1383;48.362;10.908;2023-12-20T04:37:31;4.93;;;3.50;;
2750;SDS011;1383;48.362;10.908;2023-12-20T04:39:57;4.05;;;3.65;;
2750;SDS011;1383;48.362;10.908;2023-12-20T04:42:24;4.50;;;3.33;;
2750;SDS011;1383;48.362;10.908;2023-12-20T04:44:51;4.38;;;3.92;;
2750;SDS011;1383;48.362;10.908;2023-12-20T04:47:18;3.95;;;3.35;;
2750;SDS011;1383;48.362;10.908;2023-12-20T04:49:45;3.25;;;2.95;;
2750;SDS011;1383;48.362;10.908;2023-12-20T04:52:12;5.07;;;3.55;;
2750;SDS011;1383;48.362;10.908;2023-12-20T04:54:39;4.07;;;3.67;;
2750;SDS011;1383;48.362;10.908;2023-12-20T04:57:10;4.60;;;3.47;;
2750;SDS011;1383;48.362;10.908;2023-12-20T04:59:37;4.55;;;4.15;;
2750;SDS011;1383;48.362;10.908;2023-12-20T05:02:03;4.40;;;3.20;;
2750;SDS011;1383;48.362;10.908;2023-12-20T05:04:30;5.05;;;3.70;;
2750;SDS011;1383;48.362;10.908;2023-12-20T05:06:57;4.00;;;3.30;;
2750;SDS011;1383;48.362;10.908;2023-12-20T05:09:24;4.28;;;3.40;;
2750;SDS011;1383;48.362;10.908;2023-12-20T05:11:51;4.20;;;3.70;;
2750;SDS011;1383;48.362;10.908;2023-12-20T05:14:18;4.10;;;3.70;;
2750;SDS011;1383;48.362;10.908;2023-12-20T05:16:45;3.85;;;3.45;;
2750;SDS011;1383;48.362;10.908;2023-12-20T05:19:12;4.50;;;4.07;;
2750;SDS011;1383;48.362;10.908;2023-12-20T05:21:38;3.75;;;3.45;;
2750;SDS011;1383;48.362;10.908;2023-12-20T05:24:05;4.65;;;3.75;;
2750;SDS011;1383;48.362;10.908;2023-12-20T05:26:32;3.00;;;2.70;;
2750;SDS011;1383;48.362;10.908;2023-12-20T05:28:59;3.38;;;3.08;;
2750;SDS011;1383;48.362;10.908;2023-12-20T05:31:26;3.72;;;3.33;;
2750;SDS011;1383;48.362;10.908;2023-12-20T05:33:53;2.80;;;2.47;;
2750;SDS011;1383;48.362;10.908;2023-12-20T05:36:20;3.35;;;2.90;;
2750;SDS011;1383;48.362;10.908;2023-12-20T05:38:47;3.17;;;2.63;;
2750;SDS011;1383;48.362;10.908;2023-12-20T05:41:14;2.90;;;2.70;;
2750;SDS011;1383;48.362;10.908;2023-12-20T05:43:41;3.03;;;2.75;;
2750;SDS011;1383;48.362;10.908;2023-12-20T05:46:09;2.83;;;2.30;;
2750;SDS011;1383;48.362;10.908;2023-12-20T05:48:37;2.78;;;2.58;;
2750;SDS011;1383;48.362;10.908;2023-12-20T05:51:04;3.50;;;3.20;;
2750;SDS011;1383;48.362;10.908;2023-12-20T05:53:31;3.05;;;2.72;;
2750;SDS011;1383;48.362;10.908;2023-12-20T05:55:58;3.08;;;2.75;;
2750;SDS011;1383;48.362;10.908;2023-12-20T05:58:25;2.63;;;2.53;;
2750;SDS011;1383;48.362;10.908;2023-12-20T06:00:53;3.25;;;2.95;;
2750;SDS011;1383;48.362;10.908;2023-12-20T06:03:19;2.60;;;2.40;;
2750;SDS011;1383;48.362;10.908;2023-12-20T06:05:46;3.45;;;3.15;;
2750;SDS011;1383;48.362;10.908;2023-12-20T06:08:13;3.25;;;2.95;;
2750;SDS011;1383;48.362;10.908;2023-12-20T06:10:40;3.97;;;3.58;;
2750;SDS011;1383;48.362;10.908;2023-12-20T06:13:07;4.93;;;3.63;;
2750;SDS011;1383;48.362;10.908;2023-12-20T06:15:34;4.53;;;4.10;;
2750;SDS011;1383;48.362;10.908;2023-12-20T06:18:01;4.75;;;4.10;;
2750;SDS011;1383;48.362;10.908;2023-12-20T06:20:29;3.58;;;2.85;;
2750;SDS011;1383;48.362;10.908;2023-12-20T06:22:56;4.85;;;2.90;;
2750;SDS011;1383;48.362;10.908;2023-12-20T06:25:23;3.47;;;3.17;;
2750;SDS011;1383;48.362;10.908;2023-12-20T06:27:50;6.60;;;3.75;;
2750;SDS011;1383;48.362;10.908;2023-12-20T06:30:17;4.25;;;3.78;;
2750;SDS011;1383;48.362;10.908;2023-12-20T06:32:44;4.25;;;3.83;;
2750;SDS011;1383;48.362;10.908;2023-12-20T06:35:13;4.82;;;3.55;;
2750;SDS011;1383;48.362;10.908;2023-12-20T06:37:40;4.07;;;3.67;;
2750;SDS011;1383;48.362;10.908;2023-12-20T06:40:09;4.93;;;4.43;;
2750;SDS011;1383;48.362;10.908;2023-12-20T06:42:43;6.82;;;4.80;;
2750;SDS011;1383;48.362;10.908;2023-12-20T06:45:24;4.60;;;4.13;;
2750;SDS011;1383;48.362;10.908;2023-12-20T06:47:51;5.53;;;4.82;;
2750;SDS011;1383;48.362;10.908;2023-12-20T06:50:18;4.43;;;4.07;;
2750;SDS011;1383;48.362;10.908;2023-12-20T06:52:45;5.75;;;5.18;;
2750;SDS011;1383;48.362;10.908;2023-12-20T06:55:11;6.45;;;4.85;;
2750;SDS011;1383;48.362;10.908;2023-12-20T06:57:38;9.25;;;5.90;;
2750;SDS011;1383;48.362;10.908;2023-12-20T07:00:05;5.65;;;4.85;;
2750;SDS011;1383;48.362;10.908;2023-12-20T07:02:33;6.22;;;5.18;;
2750;SDS011;1383;48.362;10.908;2023-12-20T07:05:00;7.75;;;5.20;;
2750;SDS011;1383;48.362;10.908;2023-12-20T07:07:27;5.68;;;4.50;;
2750;SDS011;1383;48.362;10.908;2023-12-20T07:09:54;7.32;;;5.80;;
2750;SDS011;1383;48.362;10.908;2023-12-20T07:12:21;8.20;;;6.47;;
2750;SDS011;1383;48.362;10.908;2023-12-20T07:14:48;6.20;;;5.60;;
2750;SDS011;1383;48.362;10.908;2023-12-20T07:17:16;5.30;;;4.68;;
2750;SDS011;1383;48.362;10.908;2023-12-20T07:19:43;6.40;;;5.40;;
2750;SDS011;1383;48.362;10.908;2023-12-20T07:22:10;7.85;;;6.32;;
2750;SDS011;1383;48.362;10.908;2023-12-20T07:24:37;9.10;;;5.90;;
2750;SDS011;1383;48.362;10.908;2023-12-20T07:27:04;5.95;;;5.35;;
2750;SDS011;1383;48.362;10.908;2023-12-20T07:29:31;7.75;;;5.30;;
2750;SDS011;1383;48.362;10.908;2023-12-20T07:31:58;8.02;;;6.50;;
2750;SDS011;1383;48.362;10.908;2023-12-20T07:34:24;5.93;;;5.38;;
2750;SDS011;1383;48.362;10.908;2023-12-20T07:36:52;6.82;;;6.13;;
2750;SDS011;1383;48.362;10.908;2023-12-20T07:39:18;7.47;;;6.57;;
2750;SDS011;1383;48.362;10.908;2023-12-20T07:41:45;5.82;;;5.30;;
2750;SDS011;1383;48.362;10.908;2023-12-20T07:44:12;6.53;;;5.30;;
2750;SDS011;1383;48.362;10.908;2023-12-20T07:46:39;5.72;;;5.18;;
2750;SDS011;1383;48.362;10.908;2023-12-20T07:49:06;5.72;;;5.13;;
2750;SDS011;1383;48.362;10.908;2023-12-20T07:51:35;6.28;;;4.93;;
2750;SDS011;1383;48.362;10.908;2023-12-20T07:54:01;6.45;;;5.85;;
2750;SDS011;1383;48.362;10.908;2023-12-20T07:56:29;6.30;;;5.70;;
2750;SDS011;1383;48.362;10.908;2023-12-20T07:58:56;7.72;;;6.20;;
2750;SDS011;1383;48.362;10.908;2023-12-20T08:01:26;6.00;;;5.18;;
2750;SDS011;1383;48.362;10.908;2023-12-20T08:03:53;8.13;;;6.05;;
2750;SDS011;1383;48.362;10.908;2023-12-20T08:06:21;6.40;;;5.07;;
2750;SDS011;1383;48.362;10.908;2023-12-20T08:08:48;8.00;;;5.88;;
2750;SDS011;1383;48.362;10.908;2023-12-20T08:11:26;6.80;;;4.95;;
2750;SDS011;1383;48.362;10.908;2023-12-20T08:13:53;5.18;;;4.65;;
2750;SDS011;1383;48.362;10.908;2023-12-20T08:16:20;5.05;;;4.55;;
2750;SDS011;1383;48.362;10.908;2023-12-20T08:18:47;7.38;;;5.07;;
2750;SDS011;1383;48.362;10.908;2023-12-20T08:21:14;5.10;;;4.55;;
2750;SDS011;1383;48.362;10.908;2023-12-20T08:23:41;5.20;;;4.70;;
2750;SDS011;1383;48.362;10.908;2023-12-20T08:26:08;5.35;;;4.60;;
2750;SDS011;1383;48.362;10.908;2023-12-20T08:28:36;7.05;;;4.25;;
2750;SDS011;1383;48.362;10.908;2023-12-20T08:31:03;5.05;;;4.55;;
2750;SDS011;1383;48.362;10.908;2023-12-20T08:33:30;4.75;;;4.32;;
2750;SDS011;1383;48.362;10.908;2023-12-20T08:35:57;4.25;;;3.85;;
2750;SDS011;1383;48.362;10.908;2023-12-20T08:38:24;5.93;;;5.15;;
2750;SDS011;1383;48.362;10.908;2023-12-20T08:40:51;5.65;;;3.80;;
2750;SDS011;1383;48.362;10.908;2023-12-20T08:43:18;5.70;;;3.90;;
2750;SDS011;1383;48.362;10.908;2023-12-20T08:45:45;4.80;;;4.38;;
2750;SDS011;1383;48.362;10.908;2023-12-20T08:48:12;5.93;;;4.63;;
2750;SDS011;1383;48.362;10.908;2023-12-20T08:50:39;7.18;;;5.07;;
2750;SDS011;1383;48.362;10.908;2023-12-20T08:53:06;6.25;;;5.20;;
2750;SDS011;1383;48.362;10.908;2023-12-20T08:55:33;4.20;;;3.80;;
2750;SDS011;1383;48.362;10.908;2023-12-20T08:58:00;3.63;;;3.30;;
2750;SDS011;1383;48.362;10.908;2023-12-20T09:00:27;4.60;;;4.20;;
2750;SDS011;1383;48.362;10.908;2023-12-20T09:02:54;7.25;;;3.72;;
2750;SDS011;1383;48.362;10.908;2023-12-20T09:05:21;4.95;;;4.35;;
2750;SDS011;1383;48.362;10.908;2023-12-20T09:07:49;4.63;;;4.22;;
2750;SDS011;1383;48.362;10.908;2023-12-20T09:10:16;4.72;;;4.20;;
2750;SDS011;1383;48.362;10.908;2023-12-20T09:12:49;4.45;;;3.72;;
2750;SDS011;1383;48.362;10.908;2023-12-20T09:15:17;4.32;;;3.92;;
2750;SDS011;1383;48.362;10.908;2023-12-20T09:17:44;4.68;;;3.72;;
2750;SDS011;1383;48.362;10.908;2023-12-20T09:20:11;4.43;;;4.03;;
2750;SDS011;1383;48.362;10.908;2023-12-20T09:22:40;3.97;;;3.65;;
2750;SDS011;1383;48.362;10.908;2023-12-20T09:25:08;4.30;;;3.45;;
2750;SDS011;1383;48.362;10.908;2023-12-20T09:27:36;3.90;;;3.53;;
2750;SDS011;1383;48.362;10.908;2023-12-20T09:30:03;3.60;;;3.30;;
2750;SDS011;1383;48.362;10.908;2023-12-20T09:32:31;4.07;;;3.67;;
2750;SDS011;1383;48.362;10.908;2023-12-20T09:34:59;4.50;;;4.10;;
2750;SDS011;1383;48.362;10.908;2023-12-20T09:37:26;4.53;;;4.13;;
2750;SDS011;1383;48.362;10.908;2023-12-20T09:39:54;4.78;;;3.10;;
2750;SDS011;1383;48.362;10.908;2023-12-20T09:42:24;5.32;;;4.82;;
2750;SDS011;1383;48.362;10.908;2023-12-20T09:45:00;4.35;;;3.47;;
2750;SDS011;1383;48.362;10.908;2023-12-20T09:47:29;4.25;;;3.60;;
2750;SDS011;1383;48.362;10.908;2023-12-20T09:49:56;3.50;;;2.75;;
2750;SDS011;1383;48.362;10.908;2023-12-20T09:52:23;3.40;;;2.80;;
2750;SDS011;1383;48.362;10.908;2023-12-20T09:54:51;3.15;;;2.80;;
2750;SDS011;1383;48.362;10.908;2023-12-20T09:57:19;3.65;;;3.35;;
2750;SDS011;1383;48.362;10.908;2023-12-20T09:59:46;2.90;;;2.60;;
2750;SDS011;1383;48.362;10.908;2023-12-20T10:02:13;3.40;;;3.10;;
2750;SDS011;1383;48.362;10.908;2023-12-20T10:04:46;3.58;;;3.28;;
2750;SDS011;1383;48.362;10.908;2023-12-20T10:07:15;3.40;;;2.95;;
2750;SDS011;1383;48.362;10.908;2023-12-20T10:09:42;5.22;;;3.08;;
2750;SDS011;1383;48.362;10.908;2023-12-20T10:12:10;4.63;;;2.50;;
2750;SDS011;1383;48.362;10.908;2023-12-20T10:14:38;2.70;;;2.45;;
2750;SDS011;1383;48.362;10.908;2023-12-20T10:17:05;5.50;;;3.55;;
2750;SDS011;1383;48.362;10.908;2023-12-20T10:19:33;2.65;;;2.45;;
2750;SDS011;1383;48.362;10.908;2023-12-20T10:22:00;4.45;;;2.60;;
2750;SDS011;1383;48.362;10.908;2023-12-20T10:24:30;3.08;;;2.70;;
2750;SDS011;1383;48.362;10.908;2023-12-20T10:29:35;3.67;;;3.05;;
2750;SDS011;1383;48.362;10.908;2023-12-20T10:32:23;3.13;;;2.83;;
2750;SDS011;1383;48.362;10.908;2023-12-20T10:34:52;5.00;;;2.63;;
2750;SDS011;1383;48.362;10.908;2023-12-20T10:37:23;4.00;;;3.08;;
2750;SDS011;1383;48.362;10.908;2023-12-20T10:39:54;2.77;;;2.57;;
2750;SDS011;1383;48.362;10.908;2023-12-20T10:42:24;2.37;;;2.17;;
2750;SDS011;1383;48.362;10.908;2023-12-20T10:51:58;4.17;;;3.20;;
2750;SDS011;1383;48.362;10.908;2023-12-20T10:54:44;2.73;;;2.53;;
2750;SDS011;1383;48.362;10.908;2023-12-20T10:57:11;2.40;;;2.15;;
2750;SDS011;1383;48.362;10.908;2023-12-20T10:59:38;3.47;;;3.27;;
2750;SDS011;1383;48.362;10.908;2023-12-20T11:02:07;3.97;;;3.17;;
2750;SDS011;1383;48.362;10.908;2023-12-20T11:04:44;2.83;;;2.63;;
2750;SDS011;1383;48.362;10.908;2023-12-20T11:07:25;4.00;;;3.33;;
2750;SDS011;1383;48.362;10.908;2023-12-20T11:10:00;3.03;;;2.83;;
2750;SDS011;1383;48.362;10.908;2023-12-20T11:12:53;2.60;;;2.40;;
2750;SDS011;1383;48.362;10.908;2023-12-20T11:15:25;5.15;;;2.92;;
2750;SDS011;1383;48.362;10.908;2023-12-20T11:17:57;5.30;;;4.33;;
2750;SDS011;1383;48.362;10.908;2023-12-20T11:20:38;3.20;;;2.90;;
2750;SDS011;1383;48.362;10.908;2023-12-20T11:23:06;2.72;;;2.33;;
2750;SDS011;1383;48.362;10.908;2023-12-20T11:25:47;3.47;;;2.67;;
2750;SDS011;1383;48.362;10.908;2023-12-20T11:28:23;3.33;;;3.03;;
2750;SDS011;1383;48.362;10.908;2023-12-20T11:30:54;3.70;;;2.88;;
2750;SDS011;1383;48.362;10.908;2023-12-20T11:33:23;2.90;;;2.60;;
2750;SDS011;1383;48.362;10.908;2023-12-20T11:36:15;2.70;;;2.47;;
2750;SDS011;1383;48.362;10.908;2023-12-20T11:38:53;8.90;;;6.05;;
2750;SDS011;1383;48.362;10.908;2023-12-20T11:41:23;3.97;;;3.20;;
2750;SDS011;1383;48.362;10.908;2023-12-20T11:43:53;2.40;;;2.10;;
2750;SDS011;1383;48.362;10.908;2023-12-20T11:46:21;5.00;;;2.42;;
2750;SDS011;1383;48.362;10.908;2023-12-20T11:48:48;2.10;;;1.90;;
2750;SDS011;1383;48.362;10.908;2023-12-20T11:51:15;2.22;;;1.92;;
2750;SDS011;1383;48.362;10.908;2023-12-20T11:53:42;5.88;;;2.58;;
2750;SDS011;1383;48.362;10.908;2023-12-20T11:56:09;2.47;;;2.03;;
2750;SDS011;1383;48.362;10.908;2023-12-20T11:58:36;2.90;;;2.35;;
2750;SDS011;1383;48.362;10.908;2023-12-20T12:01:04;1.70;;;1.60;;
2750;SDS011;1383;48.362;10.908;2023-12-20T12:03:34;2.55;;;2.03;;
2750;SDS011;1383;48.362;10.908;2023-12-20T12:06:01;2.85;;;2.20;;
2750;SDS011;1383;48.362;10.908;2023-12-20T12:08:31;2.92;;;2.10;;
2750;SDS011;1383;48.362;10.908;2023-12-20T12:10:58;2.47;;;1.73;;
2750;SDS011;1383;48.362;10.908;2023-12-20T12:13:25;2.45;;;2.25;;
2750;SDS011;1383;48.362;10.908;2023-12-20T12:15:55;3.35;;;2.88;;
2750;SDS011;1383;48.362;10.908;2023-12-20T12:18:22;2.67;;;2.33;;
2750;SDS011;1383;48.362;10.908;2023-12-20T12:20:49;2.90;;;2.55;;
2750;SDS011;1383;48.362;10.908;2023-12-20T12:23:22;2.30;;;2.10;;
2750;SDS011;1383;48.362;10.908;2023-12-20T12:25:50;3.22;;;2.53;;
2750;SDS011;1383;48.362;10.908;2023-12-20T12:28:17;2.13;;;2.03;;
2750;SDS011;1383;48.362;10.908;2023-12-20T12:30:55;2.25;;;2.05;;
2750;SDS011;1383;48.362;10.908;2023-12-20T12:33:24;2.33;;;2.10;;
2750;SDS011;1383;48.362;10.908;2023-12-20T12:35:52;3.25;;;2.55;;
2750;SDS011;1383;48.362;10.908;2023-12-20T12:38:20;4.05;;;2.35;;
2750;SDS011;1383;48.362;10.908;2023-12-20T12:40:47;5.50;;;2.17;;
2750;SDS011;1383;48.362;10.908;2023-12-20T12:43:16;3.60;;;2.42;;
2750;SDS011;1383;48.362;10.908;2023-12-20T12:45:42;7.55;;;2.70;;
2750;SDS011;1383;48.362;10.908;2023-12-20T12:48:10;4.93;;;3.72;;
2750;SDS011;1383;48.362;10.908;2023-12-20T12:50:38;3.53;;;2.67;;
2750;SDS011;1383;48.362;10.908;2023-12-20T12:53:05;2.67;;;2.25;;
2750;SDS011;1383;48.362;10.908;2023-12-20T12:55:34;2.50;;;1.80;;
2750;SDS011;1383;48.362;10.908;2023-12-20T12:58:03;4.78;;;3.55;;
2750;SDS011;1383;48.362;10.908;2023-12-20T13:00:31;2.35;;;2.00;;
2750;SDS011;1383;48.362;10.908;2023-12-20T13:02:58;2.00;;;1.90;;
2750;SDS011;1383;48.362;10.908;2023-12-20T13:05:25;2.17;;;1.80;;
2750;SDS011;1383;48.362;10.908;2023-12-20T13:07:52;4.22;;;1.63;;
2750;SDS011;1383;48.362;10.908;2023-12-20T13:10:35;2.45;;;2.10;;
2750;SDS011;1383;48.362;10.908;2023-12-20T13:13:03;2.45;;;1.75;;
2750;SDS011;1383;48.362;10.908;2023-12-20T13:15:33;4.07;;;1.60;;
2750;SDS011;1383;48.362;10.908;2023-12-20T13:18:00;3.65;;;1.92;;
2750;SDS011;1383;48.362;10.908;2023-12-20T13:20:28;2.92;;;1.63;;
2750;SDS011;1383;48.362;10.908;2023-12-20T13:22:55;2.75;;;1.50;;
2750;SDS011;1383;48.362;10.908;2023-12-20T13:25:22;3.35;;;1.90;;
2750;SDS011;1383;48.362;10.908;2023-12-20T13:27:51;1.90;;;1.27;;
2750;SDS011;1383;48.362;10.908;2023-12-20T13:30:20;2.22;;;1.65;;
2750;SDS011;1383;48.362;10.908;2023-12-20T13:32:46;3.22;;;1.88;;
2750;SDS011;1383;48.362;10.908;2023-12-20T13:35:14;1.92;;;1.48;;
2750;SDS011;1383;48.362;10.908;2023-12-20T13:37:43;2.40;;;1.33;;
2750;SDS011;1383;48.362;10.908;2023-12-20T13:40:13;2.47;;;1.92;;
2750;SDS011;1383;48.362;10.908;2023-12-20T13:42:55;3.65;;;1.75;;
2750;SDS011;1383;48.362;10.908;2023-12-20T13:45:22;2.00;;;1.80;;
2750;SDS011;1383;48.362;10.908;2023-12-20T13:47:51;2.30;;;1.60;;
2750;SDS011;1383;48.362;10.908;2023-12-20T13:50:18;2.45;;;1.83;;
2750;SDS011;1383;48.362;10.908;2023-12-20T13:52:46;6.95;;;1.60;;
2750;SDS011;1383;48.362;10.908;2023-12-20T13:55:13;3.00;;;1.95;;
2750;SDS011;1383;48.362;10.908;2023-12-20T13:57:40;2.17;;;1.80;;
2750;SDS011;1383;48.362;10.908;2023-12-20T14:00:20;1.90;;;1.70;;
2750;SDS011;1383;48.362;10.908;2023-12-20T14:02:48;5.43;;;2.00;;
2750;SDS011;1383;48.362;10.908;2023-12-20T14:05:16;6.38;;;2.50;;
2750;SDS011;1383;48.362;10.908;2023-12-20T14:07:45;2.90;;;2.55;;
2750;SDS011;1383;48.362;10.908;2023-12-20T14:10:13;3.00;;;1.95;;
2750;SDS011;1383;48.362;10.908;2023-12-20T14:12:40;2.72;;;1.70;;
2750;SDS011;1383;48.362;10.908;2023-12-20T14:15:07;1.95;;;1.75;;
2750;SDS011;1383;48.362;10.908;2023-12-20T14:17:37;5.03;;;1.90;;
2750;SDS011;1383;48.362;10.908;2023-12-20T14:20:06;2.85;;;2.13;;
2750;SDS011;1383;48.362;10.908;2023-12-20T14:22:34;7.43;;;2.17;;
2750;SDS011;1383;48.362;10.908;2023-12-20T14:25:01;3.33;;;1.42;;
2750;SDS011;1383;48.362;10.908;2023-12-20T14:27:29;2.40;;;2.22;;
2750;SDS011;1383;48.362;10.908;2023-12-20T14:29:56;2.97;;;2.05;;
2750;SDS011;1383;48.362;10.908;2023-12-20T14:32:23;1.90;;;1.75;;
2750;SDS011;1383;48.362;10.908;2023-12-20T14:34:52;9.35;;;1.50;;
2750;SDS011;1383;48.362;10.908;2023-12-20T14:37:21;2.30;;;1.95;;
2750;SDS011;1383;48.362;10.908;2023-12-20T14:39:48;4.50;;;1.58;;
2750;SDS011;1383;48.362;10.908;2023-12-20T14:42:15;3.25;;;1.65;;
2750;SDS011;1383;48.362;10.908;2023-12-20T14:44:43;2.75;;;1.60;;
2750;SDS011;1383;48.362;10.908;2023-12-20T14:47:10;2.63;;;1.92;;
2750;SDS011;1383;48.362;10.908;2023-12-20T14:49:37;3.20;;;1.20;;
2750;SDS011;1383;48.362;10.908;2023-12-20T14:52:05;2.05;;;1.70;;
2750;SDS011;1383;48.362;10.908;2023-12-20T14:54:32;4.50;;;1.98;;
2750;SDS011;1383;48.362;10.908;2023-12-20T14:56:59;1.73;;;1.63;;
2750;SDS011;1383;48.362;10.908;2023-12-20T14:59:31;2.65;;;1.70;;
2750;SDS011;1383;48.362;10.908;2023-12-20T15:01:59;4.80;;;1.77;;
2750;SDS011;1383;48.362;10.908;2023-12-20T15:04:26;2.95;;;2.15;;
2750;SDS011;1383;48.362;10.908;2023-12-20T15:06:55;5.40;;;3.45;;
2750;SDS011;1383;48.362;10.908;2023-12-20T15:09:22;2.05;;;1.75;;
2750;SDS011;1383;48.362;10.908;2023-12-20T15:11:50;9.07;;;3.15;;
2750;SDS011;1383;48.362;10.908;2023-12-20T15:14:17;7.72;;;3.65;;
2750;SDS011;1383;48.362;10.908;2023-12-20T15:16:46;6.88;;;2.60;;
2750;SDS011;1383;48.362;10.908;2023-12-20T15:19:14;2.10;;;1.90;;
2750;SDS011;1383;48.362;10.908;2023-12-20T15:21:42;6.32;;;1.80;;
2750;SDS011;1383;48.362;10.908;2023-12-20T15:24:13;2.50;;;1.42;;
2750;SDS011;1383;48.362;10.908;2023-12-20T15:26:46;2.97;;;1.83;;
2750;SDS011;1383;48.362;10.908;2023-12-20T15:29:13;4.88;;;2.40;;
2750;SDS011;1383;48.362;10.908;2023-12-20T15:31:42;3.05;;;1.60;;
2750;SDS011;1383;48.362;10.908;2023-12-20T15:34:10;11.50;;;2.33;;